Gonzales, Texas
Current Conditions -  °F | °C
As of 4:15 PM on Sunday 25 Jan 2015 (Local Time) from KT20 Reporting Station
Clear Clear  
Wind Chill: 69°   Ceiling: Unl
Heat Index: 69°   Visibility: 10mi
Dew Point: 42°   Wind: 8mph
Humidity: 37%   Direction: 310°NW
Pressure: 30.09"   Gusts: NA
Location:  29.5°N, 97.45°W
Report Text: KT20 252215Z AUTO 31007KT 10SM CLR 21/05 A3009 RMK AO2 T02070054
Loading
Personal Weather Stations






























Interactive Weather Map New forecast layout! Learn more

10-Day Weather Forecast

Advertisements
Track Severe Weather on mobile